Time;durP1;ratioP1;P1;durP2;ratioP2;P2;SDS_P1;SDS_P2;PMS_P1;PMS_P2;Temp;Humidity;BMP_temperature;BMP_pressure;BME280_temperature;BME280_humidity;BME280_pressure;Samples;Min_cycle;Max_cycle;Signal;HPM_P1;HPM_P2
2023/07/24 00:00:35;;;;;;;13.87;10.00;;;24.50;95.50;;;;;;5075973;28;20548;-65
2023/07/24 00:03:03;;;;;;;12.50;9.70;;;24.40;95.40;;;;;;5085154;28;20308;-66
2023/07/24 00:05:30;;;;;;;15.60;11.00;;;24.40;95.50;;;;;;5079298;28;20199;-65
2023/07/24 00:07:57;;;;;;;14.23;11.10;;;24.30;95.60;;;;;;5082936;28;20266;-66
2023/07/24 00:10:24;;;;;;;18.47;12.03;;;24.30;95.60;;;;;;5085608;28;20190;-65
2023/07/24 00:12:52;;;;;;;14.73;10.47;;;24.30;95.60;;;;;;5082230;28;20212;-66
2023/07/24 00:15:19;;;;;;;13.57;10.57;;;24.30;95.60;;;;;;5082632;28;20539;-65
2023/07/24 00:17:46;;;;;;;13.20;10.13;;;24.20;95.50;;;;;;5079907;28;20244;-65
2023/07/24 00:20:13;;;;;;;17.87;11.03;;;24.20;95.70;;;;;;5076947;28;20322;-65
2023/07/24 00:22:40;;;;;;;14.63;10.10;;;24.10;95.80;;;;;;5083793;28;20218;-66
2023/07/24 00:25:08;;;;;;;14.50;10.60;;;24.10;96.00;;;;;;5086320;28;20628;-65
2023/07/24 00:27:35;;;;;;;15.47;11.60;;;24.10;96.10;;;;;;5085189;28;20201;-66
2023/07/24 00:30:03;;;;;;;15.43;11.23;;;24.00;96.30;;;;;;5082879;28;20209;-65
2023/07/24 00:32:30;;;;;;;15.63;10.57;;;24.00;96.50;;;;;;5085912;28;20496;-66
2023/07/24 00:34:57;;;;;;;13.20;11.10;;;24.00;96.60;;;;;;5079311;28;20617;-66
2023/07/24 00:37:24;;;;;;;13.87;11.33;;;24.00;96.70;;;;;;5079944;28;20648;-65
2023/07/24 00:39:51;;;;;;;13.80;11.67;;;24.00;96.80;;;;;;5083562;28;20212;-65
2023/07/24 00:42:19;;;;;;;16.13;10.90;;;24.00;96.80;;;;;;5083447;28;20198;-65
2023/07/24 00:44:47;;;;;;;13.83;11.57;;;24.00;97.00;;;;;;5086319;28;20197;-65
2023/07/24 00:47:17;;;;;;;16.60;11.30;;;23.90;97.00;;;;;;5083676;28;20706;-65
2023/07/24 00:49:46;;;;;;;15.10;10.93;;;23.90;97.10;;;;;;5084929;28;20552;-66
2023/07/24 00:52:14;;;;;;;19.60;11.20;;;23.90;97.10;;;;;;5088136;28;20208;-66
2023/07/24 00:54:41;;;;;;;12.87;10.60;;;23.90;97.10;;;;;;5080788;28;20243;-65
2023/07/24 00:57:08;;;;;;;10.97;9.60;;;23.90;96.90;;;;;;5088519;28;20201;-66
2023/07/24 00:59:35;;;;;;;11.80;10.20;;;23.80;96.70;;;;;;5079875;28;20212;-66
2023/07/24 01:02:03;;;;;;;14.10;10.67;;;23.80;96.60;;;;;;5078356;28;20209;-65
2023/07/24 01:04:30;;;;;;;21.83;11.83;;;23.70;96.60;;;;;;5082724;28;20278;-65
2023/07/24 01:06:57;;;;;;;13.37;10.67;;;23.60;96.70;;;;;;5090618;28;20194;-65
2023/07/24 01:09:25;;;;;;;14.83;10.93;;;23.60;96.90;;;;;;5085975;28;20197;-65
2023/07/24 01:12:10;;;;;;;14.80;11.97;;;23.60;97.00;;;;;;5084994;28;20228;-65
2023/07/24 01:14:52;;;;;;;16.03;12.10;;;23.60;97.20;;;;;;5079760;28;20210;-66
2023/07/24 01:17:24;;;;;;;14.37;10.20;;;23.50;97.30;;;;;;5085689;28;20201;-66
2023/07/24 01:19:59;;;;;;;19.10;11.00;;;23.50;97.20;;;;;;5085455;28;20198;-65
2023/07/24 01:22:29;;;;;;;16.03;11.67;;;23.50;97.20;;;;;;5083132;28;20281;-70
2023/07/24 01:25:31;;;;;;;18.30;12.50;;;23.50;97.20;;;;;;5081959;28;20221;-66
2023/07/24 01:27:58;;;;;;;19.30;13.07;;;23.40;97.20;;;;;;5081220;28;20246;-66
2023/07/24 01:30:25;;;;;;;18.23;13.50;;;23.40;97.30;;;;;;5085144;28;20643;-66
2023/07/24 01:32:52;;;;;;;14.37;11.10;;;23.40;96.90;;;;;;5087227;28;20284;-65
2023/07/24 01:35:19;;;;;;;17.90;12.30;;;23.40;96.80;;;;;;5081759;28;20301;-66
2023/07/24 01:37:47;;;;;;;12.70;11.10;;;23.30;96.30;;;;;;5089319;28;20550;-65
2023/07/24 01:40:15;;;;;;;16.03;11.70;;;23.30;96.20;;;;;;5084179;28;20216;-66
2023/07/24 01:42:42;;;;;;;20.27;12.57;;;23.20;96.20;;;;;;5084100;28;20221;-65
2023/07/24 01:45:11;;;;;;;16.77;12.57;;;23.20;96.30;;;;;;5082559;28;20198;-65
2023/07/24 01:47:39;;;;;;;26.97;14.33;;;23.20;96.40;;;;;;5083151;28;20234;-66
2023/07/24 01:50:06;;;;;;;16.33;11.93;;;23.20;96.40;;;;;;5087232;28;20209;-66
2023/07/24 01:52:33;;;;;;;18.77;12.80;;;23.20;96.40;;;;;;5080040;28;20284;-65
2023/07/24 01:55:00;;;;;;;22.10;13.60;;;23.30;96.40;;;;;;5082012;28;20542;-66
2023/07/24 01:57:27;;;;;;;19.57;13.10;;;23.20;96.40;;;;;;5079702;28;20185;-66
2023/07/24 01:59:55;;;;;;;19.43;13.53;;;23.20;96.20;;;;;;5071849;28;20198;-65
2023/07/24 02:02:22;;;;;;;18.20;12.40;;;23.20;96.10;;;;;;5091881;28;20287;-65
2023/07/24 02:04:49;;;;;;;20.37;14.77;;;23.20;96.00;;;;;;5087907;28;20670;-65
2023/07/24 02:07:16;;;;;;;16.67;13.13;;;23.10;96.00;;;;;;5087945;28;20197;-65
2023/07/24 02:09:43;;;;;;;24.97;15.00;;;23.10;96.10;;;;;;5079524;28;20202;-65
2023/07/24 02:12:10;;;;;;;18.73;13.47;;;23.00;95.90;;;;;;5086637;28;20208;-65
2023/07/24 02:14:37;;;;;;;20.77;14.47;;;23.00;96.10;;;;;;5081811;28;20225;-68
2023/07/24 02:17:04;;;;;;;21.27;14.40;;;23.00;96.10;;;;;;5079066;28;20213;-65
2023/07/24 02:19:31;;;;;;;18.73;13.57;;;23.00;96.00;;;;;;5079461;28;20540;-65
2023/07/24 02:21:58;;;;;;;22.30;16.17;;;22.90;95.90;;;;;;5078889;28;20209;-65
2023/07/24 02:24:26;;;;;;;19.70;13.50;;;22.90;96.00;;;;;;5085447;28;20308;-66
2023/07/24 02:26:53;;;;;;;21.97;15.70;;;22.90;95.90;;;;;;5080382;28;20194;-66
2023/07/24 02:29:20;;;;;;;20.00;15.00;;;22.90;95.80;;;;;;5081407;28;20632;-65
2023/07/24 02:31:49;;;;;;;23.77;14.03;;;22.80;95.90;;;;;;5081488;28;20659;-65
2023/07/24 02:34:16;;;;;;;21.20;14.33;;;22.70;96.00;;;;;;5081526;28;20578;-66
2023/07/24 02:36:43;;;;;;;18.93;13.43;;;22.70;96.10;;;;;;5089587;28;20216;-65
2023/07/24 02:39:10;;;;;;;22.07;14.30;;;22.60;96.20;;;;;;5083518;28;20306;-65
2023/07/24 02:41:37;;;;;;;18.10;13.30;;;22.60;96.20;;;;;;5079720;28;20260;-65
2023/07/24 02:44:04;;;;;;;19.00;13.53;;;22.60;96.30;;;;;;5079571;28;20306;-66
2023/07/24 02:46:31;;;;;;;17.60;12.97;;;22.60;96.30;;;;;;5075530;28;20637;-66
2023/07/24 02:48:59;;;;;;;15.53;12.93;;;22.60;96.20;;;;;;5085003;28;20519;-66
2023/07/24 02:51:26;;;;;;;18.50;12.97;;;22.50;96.20;;;;;;5084241;28;20538;-66
2023/07/24 02:53:54;;;;;;;21.30;14.87;;;22.50;96.30;;;;;;5070598;28;20205;-65
2023/07/24 02:56:21;;;;;;;17.33;13.03;;;22.50;96.50;;;;;;5078594;28;20193;-65
2023/07/24 02:58:49;;;;;;;18.77;13.07;;;22.40;96.60;;;;;;5080533;28;20550;-65
2023/07/24 03:01:16;;;;;;;16.90;12.87;;;22.40;96.70;;;;;;5084615;28;20210;-66
2023/07/24 03:03:43;;;;;;;22.63;13.83;;;22.40;96.80;;;;;;5075949;28;20229;-65
2023/07/24 03:06:10;;;;;;;22.20;15.00;;;22.40;96.80;;;;;;5081436;28;20201;-65
2023/07/24 03:08:37;;;;;;;21.90;14.87;;;22.40;96.90;;;;;;5080057;28;20595;-65
2023/07/24 03:11:05;;;;;;;23.83;14.40;;;22.40;96.90;;;;;;5084538;28;20202;-66
2023/07/24 03:13:32;;;;;;;21.90;15.40;;;22.40;96.90;;;;;;5079148;28;20281;-66
2023/07/24 03:15:59;;;;;;;19.53;13.60;;;22.30;96.70;;;;;;5083343;28;20209;-66
2023/07/24 03:18:26;;;;;;;20.67;15.03;;;22.30;96.70;;;;;;5083289;28;20602;-66
2023/07/24 03:20:53;;;;;;;22.90;15.47;;;22.30;96.80;;;;;;5085904;28;20292;-66
2023/07/24 03:23:20;;;;;;;20.47;15.13;;;22.30;96.80;;;;;;5081112;28;20201;-66
2023/07/24 03:25:48;;;;;;;20.90;13.73;;;22.30;96.60;;;;;;5083532;28;20506;-65
2023/07/24 03:28:16;;;;;;;21.77;15.50;;;22.20;96.30;;;;;;5076154;28;20219;-65
2023/07/24 03:30:43;;;;;;;22.67;15.57;;;22.20;96.20;;;;;;5079917;28;20229;-67
2023/07/24 03:33:12;;;;;;;20.97;14.63;;;22.10;96.20;;;;;;5074229;28;20524;-65
2023/07/24 03:35:39;;;;;;;29.30;14.70;;;22.10;96.30;;;;;;5088189;28;20206;-66
2023/07/24 03:38:06;;;;;;;22.27;15.67;;;22.10;96.50;;;;;;5088746;28;20197;-65
2023/07/24 03:40:33;;;;;;;20.90;14.83;;;22.10;96.60;;;;;;5078290;28;20205;-66
2023/07/24 03:43:00;;;;;;;20.50;16.03;;;22.10;96.30;;;;;;5070017;28;20219;-66
2023/07/24 03:45:27;;;;;;;24.03;14.17;;;22.00;96.20;;;;;;5087361;28;20220;-66
2023/07/24 03:47:54;;;;;;;22.50;15.40;;;22.00;96.20;;;;;;5078561;28;20237;-65
2023/07/24 03:50:21;;;;;;;21.00;15.17;;;21.90;96.20;;;;;;5081348;28;20222;-65
2023/07/24 03:52:48;;;;;;;23.87;15.73;;;21.90;96.40;;;;;;5083780;28;20259;-67
2023/07/24 03:55:15;;;;;;;20.47;15.47;;;22.00;96.60;;;;;;5078674;28;20206;-66
2023/07/24 03:57:42;;;;;;;21.27;16.37;;;22.00;96.60;;;;;;5081550;28;20201;-66
2023/07/24 04:00:10;;;;;;;21.87;15.43;;;22.00;96.60;;;;;;5080713;28;20193;-65
2023/07/24 04:02:40;;;;;;;19.97;14.03;;;22.00;96.30;;;;;;5080894;28;20202;-65
2023/07/24 04:05:07;;;;;;;22.60;16.13;;;22.00;96.20;;;;;;5083452;28;20239;-65
2023/07/24 04:07:34;;;;;;;22.73;16.30;;;21.90;96.20;;;;;;5089485;28;20208;-66
2023/07/24 04:10:01;;;;;;;23.27;15.67;;;22.00;96.40;;;;;;5085832;28;20537;-65
2023/07/24 04:12:29;;;;;;;23.60;15.93;;;22.00;96.60;;;;;;5081734;28;20224;-66
2023/07/24 04:14:56;;;;;;;23.17;15.70;;;22.00;96.70;;;;;;5083221;28;20217;-66
2023/07/24 04:17:23;;;;;;;21.93;16.47;;;22.10;96.70;;;;;;5084815;28;20206;-65
2023/07/24 04:19:50;;;;;;;24.27;16.97;;;22.10;96.60;;;;;;5088225;28;20266;-65
2023/07/24 04:22:17;;;;;;;24.70;17.10;;;22.10;96.50;;;;;;5090479;28;20250;-66
2023/07/24 04:24:45;;;;;;;22.97;17.50;;;22.10;96.50;;;;;;5087976;28;20225;-65
2023/07/24 04:27:12;;;;;;;24.67;16.43;;;22.10;96.50;;;;;;5088194;28;20263;-66
2023/07/24 04:29:38;;;;;;;22.47;16.10;;;22.20;96.60;;;;;;5085401;28;20197;-66
2023/07/24 04:32:06;;;;;;;25.47;15.47;;;22.20;96.60;;;;;;5089257;28;20197;-67
2023/07/24 04:34:33;;;;;;;23.47;15.70;;;22.20;97.00;;;;;;5083748;28;20213;-66
2023/07/24 04:37:00;;;;;;;22.47;16.00;;;22.30;96.90;;;;;;5086483;28;20211;-66
2023/07/24 04:39:27;;;;;;;22.33;15.87;;;22.30;97.10;;;;;;5087043;28;20643;-66
2023/07/24 04:41:54;;;;;;;24.10;15.63;;;22.30;97.20;;;;;;5092069;28;20662;-66
2023/07/24 04:44:21;;;;;;;23.93;15.07;;;22.40;97.40;;;;;;5079198;28;20275;-66
2023/07/24 04:46:48;;;;;;;20.63;15.33;;;22.40;97.70;;;;;;5084989;28;20545;-65
2023/07/24 04:49:15;;;;;;;24.27;16.70;;;22.50;98.20;;;;;;5084333;28;20190;-66
2023/07/24 04:51:42;;;;;;;24.00;17.17;;;22.50;98.70;;;;;;5091629;28;20197;-71
2023/07/24 04:54:09;;;;;;;20.63;16.47;;;22.60;99.10;;;;;;5091861;28;20231;-65
2023/07/24 04:56:36;;;;;;;22.20;16.37;;;22.70;99.50;;;;;;5085627;28;20210;-66
2023/07/24 04:59:03;;;;;;;29.53;17.90;;;22.80;99.90;;;;;;5083575;28;20203;-65
2023/07/24 05:01:30;;;;;;;23.80;18.73;;;22.90;99.90;;;;;;5084524;28;20197;-65
2023/07/24 05:03:57;;;;;;;23.43;17.57;;;22.90;99.90;;;;;;5082506;28;20214;-66
2023/07/24 05:06:24;;;;;;;21.13;18.50;;;23.00;99.90;;;;;;5087190;28;20205;-66
2023/07/24 05:08:53;;;;;;;23.23;17.70;;;23.00;99.90;;;;;;5083874;28;20198;-66
2023/07/24 05:11:20;;;;;;;22.47;17.27;;;23.10;99.90;;;;;;5087710;28;20643;-65
2023/07/24 05:13:47;;;;;;;28.13;20.07;;;23.20;99.90;;;;;;5085329;28;20193;-66
2023/07/24 05:16:14;;;;;;;30.73;19.33;;;23.20;99.90;;;;;;5086159;28;20280;-66
2023/07/24 05:18:41;;;;;;;32.77;19.47;;;23.20;99.90;;;;;;5080490;28;20247;-66
2023/07/24 05:21:08;;;;;;;29.07;19.43;;;23.20;99.90;;;;;;5089995;28;20278;-66
2023/07/24 05:23:35;;;;;;;24.07;19.70;;;23.10;99.90;;;;;;5089945;28;20202;-66
2023/07/24 05:26:03;;;;;;;30.83;20.37;;;23.20;99.90;;;;;;5082348;28;20217;-67
2023/07/24 05:28:31;;;;;;;35.10;21.97;;;23.20;99.90;;;;;;5081055;28;20631;-66
2023/07/24 05:31:03;;;;;;;31.57;21.67;;;23.10;99.90;;;;;;5085177;28;20202;-65
2023/07/24 05:33:31;;;;;;;31.93;21.20;;;23.10;99.90;;;;;;5085404;28;20193;-65
2023/07/24 05:35:59;;;;;;;24.67;18.77;;;23.20;99.90;;;;;;5084969;28;20224;-65
2023/07/24 05:38:26;;;;;;;26.43;18.87;;;23.20;99.90;;;;;;5084044;28;20305;-66
2023/07/24 05:40:58;;;;;;;28.43;20.37;;;23.10;99.90;;;;;;5089080;28;20267;-66
2023/07/24 05:43:25;;;;;;;27.73;20.23;;;23.20;99.90;;;;;;5084839;28;20228;-67
2023/07/24 05:45:52;;;;;;;24.97;19.10;;;23.20;99.90;;;;;;5083892;28;20237;-68
2023/07/24 05:48:20;;;;;;;23.77;19.47;;;23.20;99.90;;;;;;5082866;28;20261;-66
2023/07/24 05:50:47;;;;;;;23.67;18.10;;;23.20;99.90;;;;;;5081771;28;20667;-66
2023/07/24 05:53:15;;;;;;;25.37;19.60;;;23.20;99.90;;;;;;5083137;28;20229;-66
2023/07/24 05:55:43;;;;;;;23.70;19.63;;;23.20;99.90;;;;;;5082169;28;20194;-66
2023/07/24 05:58:11;;;;;;;25.30;19.00;;;23.30;99.90;;;;;;5082492;28;20532;-66
2023/07/24 06:00:38;;;;;;;23.40;19.13;;;23.30;99.90;;;;;;5084729;28;20277;-67
2023/07/24 06:03:05;;;;;;;24.83;19.57;;;23.30;99.90;;;;;;5084501;28;20220;-65
2023/07/24 06:05:35;;;;;;;27.53;20.20;;;23.40;99.90;;;;;;5080443;28;20209;-66
2023/07/24 06:08:02;;;;;;;26.93;20.07;;;23.50;99.90;;;;;;5088015;28;20224;-65
2023/07/24 06:10:29;;;;;;;26.77;21.90;;;23.60;99.90;;;;;;5080078;28;20280;-66
2023/07/24 06:12:56;;;;;;;29.43;22.53;;;23.60;99.90;;;;;;5082195;28;20221;-66
2023/07/24 06:15:23;;;;;;;30.17;23.13;;;23.80;99.90;;;;;;5084015;28;20216;-66
2023/07/24 06:17:50;;;;;;;32.37;24.20;;;23.90;99.90;;;;;;5081517;28;20576;-66
2023/07/24 06:20:20;;;;;;;29.43;23.00;;;24.00;99.90;;;;;;5078068;28;20221;-66
2023/07/24 06:22:47;;;;;;;34.80;23.67;;;24.10;99.90;;;;;;5085758;28;20203;-66
2023/07/24 06:25:15;;;;;;;31.20;23.17;;;24.30;99.90;;;;;;5085747;28;20224;-67
2023/07/24 06:27:42;;;;;;;29.30;23.43;;;24.40;99.90;;;;;;5082250;28;20209;-66
2023/07/24 06:30:09;;;;;;;26.67;22.57;;;24.40;99.90;;;;;;5085891;28;20198;-65
2023/07/24 06:32:43;;;;;;;27.47;22.30;;;24.50;99.90;;;;;;5080923;28;20197;-66
2023/07/24 06:35:10;;;;;;;28.30;22.20;;;24.50;99.90;;;;;;5074703;28;20205;-66
2023/07/24 06:37:37;;;;;;;28.00;22.03;;;24.60;99.90;;;;;;5081082;28;20198;-66
2023/07/24 06:40:06;;;;;;;33.63;22.17;;;24.60;99.90;;;;;;5080783;28;20263;-65
2023/07/24 06:42:33;;;;;;;35.73;23.90;;;24.70;99.90;;;;;;5083857;28;20644;-66
2023/07/24 06:45:00;;;;;;;30.53;22.57;;;24.80;99.90;;;;;;5080826;28;20220;-66
2023/07/24 06:47:27;;;;;;;30.47;22.20;;;24.80;99.90;;;;;;5078235;28;20236;-66
2023/07/24 07:03:02;;;;;;;34.87;24.43;;;24.80;99.30;;;;;;5101243;27;20550;-65
2023/07/24 07:05:31;;;;;;;31.40;22.93;;;25.30;96.00;;;;;;5100229;28;20235;-65
2023/07/24 07:07:59;;;;;;;35.43;23.83;;;25.30;95.70;;;;;;5090665;28;20204;-65
2023/07/24 07:10:25;;;;;;;26.07;21.23;;;25.30;95.60;;;;;;5088097;28;20628;-65
2023/07/24 07:12:52;;;;;;;30.53;23.00;;;25.20;95.70;;;;;;5099382;28;20231;-64
2023/07/24 07:15:19;;;;;;;32.83;23.00;;;25.20;96.00;;;;;;5095782;28;20662;-65
2023/07/24 07:17:46;;;;;;;30.33;21.97;;;25.10;96.10;;;;;;5093994;28;20207;-66
2023/07/24 07:20:13;;;;;;;31.00;22.90;;;25.00;95.90;;;;;;5091811;28;20657;-65
2023/07/24 07:22:41;;;;;;;34.73;23.77;;;24.80;96.00;;;;;;5091964;28;20268;-64
2023/07/24 07:25:08;;;;;;;33.00;23.93;;;24.70;95.70;;;;;;5093729;28;20194;-65
2023/07/24 07:27:35;;;;;;;30.80;23.67;;;24.60;96.30;;;;;;5088036;28;20195;-64
2023/07/24 07:30:03;;;;;;;32.80;22.93;;;24.50;96.80;;;;;;5095719;28;20230;-64
2023/07/24 07:32:31;;;;;;;37.50;24.70;;;24.30;96.90;;;;;;5096091;28;20682;-64
2023/07/24 07:34:58;;;;;;;32.77;24.93;;;24.30;97.90;;;;;;5092971;28;20201;-64
2023/07/24 07:37:26;;;;;;;31.50;24.67;;;24.20;98.60;;;;;;5094032;28;20600;-65
2023/07/24 07:39:53;;;;;;;32.03;23.87;;;24.30;98.60;;;;;;5094727;28;20598;-64
2023/07/24 07:42:20;;;;;;;35.07;24.20;;;24.40;98.90;;;;;;5086854;28;20631;-65
2023/07/24 07:44:47;;;;;;;38.07;23.60;;;24.60;98.90;;;;;;5096458;28;20198;-65
2023/07/24 07:47:14;;;;;;;30.27;22.93;;;24.90;98.70;;;;;;5080601;28;20194;-65
2023/07/24 07:49:41;;;;;;;30.70;23.57;;;25.30;98.30;;;;;;5095664;28;20664;-65
2023/07/24 07:52:09;;;;;;;31.00;22.77;;;25.50;97.90;;;;;;5089611;28;20213;-64
2023/07/24 07:54:36;;;;;;;32.93;23.77;;;25.70;96.80;;;;;;5091372;28;20205;-65
2023/07/24 07:57:04;;;;;;;33.47;22.67;;;26.00;96.80;;;;;;5093210;28;20210;-66
2023/07/24 07:59:31;;;;;;;31.70;22.33;;;26.20;96.40;;;;;;5089309;28;20208;-65
2023/07/24 08:01:58;;;;;;;27.53;21.80;;;26.40;96.20;;;;;;5082771;28;20236;-65
2023/07/24 08:04:25;;;;;;;29.47;21.10;;;26.60;95.80;;;;;;5067119;28;20204;-65
2023/07/24 08:06:52;;;;;;;30.60;23.13;;;26.90;95.50;;;;;;5082694;28;20632;-65
2023/07/24 08:09:21;;;;;;;28.90;23.47;;;27.00;95.60;;;;;;5082388;28;20240;-65
2023/07/24 08:11:48;;;;;;;37.17;24.37;;;27.00;95.90;;;;;;5077276;28;20232;-65
2023/07/24 08:14:15;;;;;;;29.30;23.77;;;27.10;96.50;;;;;;5066847;28;20213;-67
2023/07/24 08:16:42;;;;;;;31.60;24.47;;;27.10;96.90;;;;;;5079875;28;20207;-65
2023/07/24 08:19:09;;;;;;;30.63;25.63;;;27.10;97.00;;;;;;5076319;28;20202;-65
2023/07/24 08:21:38;;;;;;;36.80;29.97;;;27.00;97.10;;;;;;5074100;28;20648;-65
2023/07/24 08:24:06;;;;;;;33.80;29.50;;;27.10;97.60;;;;;;5073610;28;20209;-65
2023/07/24 08:26:33;;;;;;;33.93;28.33;;;27.30;97.80;;;;;;5077493;28;20627;-65
2023/07/24 08:29:00;;;;;;;35.33;27.23;;;27.60;97.70;;;;;;5077069;28;20200;-64
2023/07/24 08:31:28;;;;;;;31.30;24.83;;;27.80;96.60;;;;;;5078282;28;20687;-65
2023/07/24 08:33:56;;;;;;;34.73;24.30;;;28.10;95.70;;;;;;5076956;28;20538;-64
2023/07/24 08:36:22;;;;;;;28.23;20.80;;;28.30;95.00;;;;;;5080042;28;20189;-65
2023/07/24 08:38:49;;;;;;;24.57;20.37;;;28.40;94.40;;;;;;5070841;28;20198;-66
2023/07/24 08:41:16;;;;;;;24.63;19.97;;;28.60;94.10;;;;;;5079039;28;20208;-64
2023/07/24 08:43:44;;;;;;;22.63;18.37;;;28.70;93.20;;;;;;5074982;28;20288;-65
2023/07/24 08:46:11;;;;;;;22.77;18.60;;;28.90;93.10;;;;;;5081920;28;20197;-65
2023/07/24 08:48:40;;;;;;;24.90;18.30;;;29.20;92.10;;;;;;5060719;28;20232;-65
2023/07/24 08:51:24;;;;;;;22.47;17.40;;;29.30;91.70;;;;;;5077208;28;20225;-64
2023/07/24 08:53:51;;;;;;;22.27;17.13;;;29.40;90.50;;;;;;5073167;28;20284;-66
2023/07/24 08:56:19;;;;;;;20.43;15.53;;;29.40;90.20;;;;;;5078963;28;20190;-65
2023/07/24 08:58:46;;;;;;;22.27;14.77;;;29.50;90.20;;;;;;5074162;28;20217;-66
2023/07/24 09:01:13;;;;;;;19.27;15.17;;;29.60;90.20;;;;;;5072567;28;20262;-65
2023/07/24 09:03:41;;;;;;;18.63;14.77;;;29.70;89.40;;;;;;5061480;28;20206;-65
2023/07/24 09:06:08;;;;;;;23.57;16.90;;;29.80;88.20;;;;;;5069825;28;20266;-65
2023/07/24 09:08:40;;;;;;;21.37;17.20;;;29.80;87.60;;;;;;5074931;28;20236;-64
2023/07/24 09:11:08;;;;;;;25.70;16.57;;;29.80;87.80;;;;;;5076102;28;20252;-71
2023/07/24 09:13:37;;;;;;;26.13;16.57;;;29.90;86.90;;;;;;5076148;28;20208;-65
2023/07/24 09:16:04;;;;;;;23.63;17.70;;;30.00;86.00;;;;;;5076487;28;20267;-65
2023/07/24 09:18:43;;;;;;;26.43;17.80;;;30.20;84.70;;;;;;5070140;28;20624;-65
2023/07/24 09:21:13;;;;;;;23.50;18.33;;;30.40;85.10;;;;;;5080263;28;20243;-65
2023/07/24 09:23:43;;;;;;;24.70;18.83;;;30.70;83.70;;;;;;5080283;28;20416;-64
2023/07/24 09:26:10;;;;;;;27.53;17.77;;;30.80;83.30;;;;;;5077629;28;20528;-65
2023/07/24 09:28:37;;;;;;;23.27;17.10;;;30.80;81.50;;;;;;5075902;28;20201;-65
2023/07/24 09:31:04;;;;;;;19.90;15.23;;;30.90;79.70;;;;;;5072300;28;20228;-65
2023/07/24 09:33:36;;;;;;;24.83;17.00;;;31.00;76.80;;;;;;5074561;28;20627;-67
2023/07/24 09:36:04;;;;;;;19.37;14.60;;;31.10;76.00;;;;;;5075754;28;20682;-66
2023/07/24 09:38:31;;;;;;;23.27;15.10;;;31.20;75.50;;;;;;5065924;28;20199;-64
2023/07/24 09:41:02;;;;;;;21.47;16.23;;;31.20;74.70;;;;;;5077943;28;20696;-65
2023/07/24 09:43:30;;;;;;;20.50;15.13;;;31.20;75.30;;;;;;5066683;28;20518;-64
2023/07/24 09:46:08;;;;;;;20.27;14.73;;;31.00;76.40;;;;;;5079120;28;20192;-64
2023/07/24 09:48:36;;;;;;;18.87;14.23;;;30.80;77.30;;;;;;5074107;28;20267;-64
2023/07/24 09:51:14;;;;;;;22.37;14.73;;;30.60;79.10;;;;;;5073052;28;20228;-64
2023/07/24 09:54:00;;;;;;;22.03;15.03;;;30.40;81.00;;;;;;5075895;28;20191;-65
2023/07/24 09:56:28;;;;;;;24.53;13.30;;;30.20;81.40;;;;;;5073251;28;20194;-65
2023/07/24 09:59:15;;;;;;;16.33;13.50;;;30.10;81.20;;;;;;5069008;28;20212;-64
2023/07/24 10:01:43;;;;;;;20.97;13.73;;;30.00;81.40;;;;;;5078572;28;20541;-65
2023/07/24 10:04:10;;;;;;;16.87;12.50;;;29.90;81.10;;;;;;5080686;28;20213;-65
2023/07/24 10:06:38;;;;;;;20.67;13.43;;;29.90;80.60;;;;;;5076795;28;20220;-67
2023/07/24 10:09:06;;;;;;;26.10;13.93;;;29.80;81.00;;;;;;5073946;28;20207;-65
2023/07/24 10:11:33;;;;;;;15.83;13.47;;;29.80;79.90;;;;;;5072549;28;20305;-65
2023/07/24 10:14:01;;;;;;;16.57;11.97;;;29.70;79.70;;;;;;5075014;28;20201;-64
2023/07/24 10:16:28;;;;;;;18.03;13.20;;;29.70;80.20;;;;;;5067063;28;20204;-65
2023/07/24 10:18:56;;;;;;;14.13;11.70;;;29.70;80.20;;;;;;5079198;28;20193;-64
2023/07/24 10:21:29;;;;;;;23.97;13.23;;;29.70;79.40;;;;;;5081243;28;20231;-64
2023/07/24 10:24:00;;;;;;;14.13;11.40;;;29.80;77.90;;;;;;5075977;28;20283;-67
2023/07/24 10:26:27;;;;;;;18.87;11.90;;;30.00;78.10;;;;;;5073390;28;20198;-64
2023/07/24 10:28:54;;;;;;;14.73;12.07;;;30.30;77.40;;;;;;5073284;28;20201;-64
2023/07/24 10:31:26;;;;;;;15.90;12.27;;;30.60;77.40;;;;;;5078489;28;20221;-65
2023/07/24 10:33:55;;;;;;;16.57;12.23;;;31.10;77.20;;;;;;5071477;28;20280;-65
2023/07/24 10:36:24;;;;;;;17.60;13.27;;;31.50;77.30;;;;;;5065540;28;20539;-64
2023/07/24 10:38:55;;;;;;;15.70;12.33;;;31.90;75.70;;;;;;5076692;28;20194;-65
2023/07/24 10:41:22;;;;;;;15.90;12.03;;;32.30;74.00;;;;;;5078686;28;20204;-66
2023/07/24 10:43:51;;;;;;;14.83;12.53;;;32.60;73.00;;;;;;5076085;28;20197;-65
2023/07/24 10:46:20;;;;;;;14.80;11.87;;;32.90;71.00;;;;;;5075821;28;20238;-65
2023/07/24 10:48:50;;;;;;;14.07;12.57;;;33.10;69.20;;;;;;5070659;28;20260;-65
2023/07/24 10:51:17;;;;;;;15.33;11.93;;;33.30;65.50;;;;;;5080084;28;20216;-65
2023/07/24 10:53:47;;;;;;;17.47;11.87;;;33.20;64.00;;;;;;5068051;28;20285;-64
2023/07/24 10:56:16;;;;;;;22.13;11.87;;;33.00;65.40;;;;;;5074447;28;20212;-65
2023/07/24 10:58:43;;;;;;;18.10;12.30;;;32.90;65.70;;;;;;5073824;28;20205;-65
2023/07/24 11:01:11;;;;;;;15.70;12.07;;;32.70;64.20;;;;;;5056565;28;20239;-67
2023/07/24 11:03:41;;;;;;;16.33;11.30;;;32.70;64.30;;;;;;5054759;28;20293;-64
2023/07/24 11:06:14;;;;;;;13.33;11.20;;;32.80;63.10;;;;;;5051646;28;20195;-64
2023/07/24 11:08:41;;;;;;;15.53;12.00;;;33.00;62.70;;;;;;5049799;28;20194;-65
2023/07/24 11:11:08;;;;;;;17.87;12.00;;;33.10;63.40;;;;;;5062633;28;20199;-68
2023/07/24 11:13:37;;;;;;;15.43;11.27;;;33.30;63.40;;;;;;5050365;28;20222;-64
2023/07/24 11:16:06;;;;;;;18.47;12.40;;;33.50;62.50;;;;;;5055415;28;20226;-64
2023/07/24 11:18:47;;;;;;;24.00;12.13;;;33.70;63.20;;;;;;5053409;28;20190;-64
2023/07/24 11:21:23;;;;;;;19.63;14.07;;;33.80;63.10;;;;;;5054011;28;20222;-64
2023/07/24 11:23:55;;;;;;;19.87;13.27;;;33.90;62.60;;;;;;5056247;28;20624;-65
2023/07/24 11:26:25;;;;;;;17.63;12.03;;;33.90;62.70;;;;;;5054937;28;20623;-65
2023/07/24 11:28:52;;;;;;;21.23;12.83;;;33.90;60.20;;;;;;5051021;28;20201;-65
2023/07/24 11:31:20;;;;;;;18.37;12.47;;;33.80;61.50;;;;;;5050621;28;20205;-64
2023/07/24 11:33:49;;;;;;;17.20;12.50;;;33.70;60.10;;;;;;5055904;28;20228;-65
2023/07/24 11:36:17;;;;;;;22.77;12.80;;;33.60;60.20;;;;;;5053901;28;20194;-64
2023/07/24 11:38:47;;;;;;;19.50;12.83;;;33.50;61.10;;;;;;5057839;28;20231;-65
2023/07/24 11:41:16;;;;;;;17.90;12.87;;;33.50;62.00;;;;;;5057715;28;20222;-64
2023/07/24 11:43:50;;;;;;;15.33;11.97;;;33.70;62.10;;;;;;5059395;28;20703;-65
2023/07/24 11:46:28;;;;;;;14.83;12.30;;;33.80;61.80;;;;;;5055329;28;20190;-64
2023/07/24 11:48:56;;;;;;;16.50;11.67;;;33.90;62.20;;;;;;5056846;28;20644;-65
2023/07/24 11:51:28;;;;;;;16.87;12.60;;;33.90;61.30;;;;;;5059001;28;20260;-64
2023/07/24 11:54:07;;;;;;;15.33;11.90;;;33.90;60.10;;;;;;5065770;28;20706;-64
2023/07/24 11:56:34;;;;;;;18.53;12.23;;;33.90;61.50;;;;;;5060793;28;20198;-64
2023/07/24 11:59:14;;;;;;;18.90;11.70;;;34.00;61.70;;;;;;5056000;28;20203;-65
2023/07/24 12:01:47;;;;;;;14.47;11.93;;;34.10;61.40;;;;;;5066815;28;20241;-64
2023/07/24 12:04:16;;;;;;;16.60;11.80;;;34.20;61.30;;;;;;5078223;28;20943;-64
2023/07/24 12:06:43;;;;;;;15.67;11.70;;;34.40;60.80;;;;;;5073949;28;20240;-65
2023/07/24 12:09:13;;;;;;;13.00;11.60;;;34.20;61.00;;;;;;5081495;28;20202;-64
2023/07/24 12:11:42;;;;;;;17.73;11.57;;;34.20;60.90;;;;;;5075996;28;20252;-65
2023/07/24 12:14:12;;;;;;;14.70;10.83;;;34.10;61.30;;;;;;5081827;28;20193;-64
2023/07/24 12:16:39;;;;;;;17.67;10.63;;;34.00;61.60;;;;;;5076613;28;20225;-64
2023/07/24 12:19:06;;;;;;;13.67;10.80;;;34.10;61.30;;;;;;5078948;28;20640;-65
2023/07/24 12:21:33;;;;;;;15.27;11.30;;;34.20;60.30;;;;;;5080691;28;20201;-64
2023/07/24 12:24:00;;;;;;;15.30;11.73;;;34.40;60.00;;;;;;5078253;28;20536;-65
2023/07/24 12:26:27;;;;;;;14.97;10.90;;;34.50;59.50;;;;;;5067832;28;20195;-64
2023/07/24 12:28:55;;;;;;;17.53;11.27;;;34.70;58.90;;;;;;5080282;28;20201;-67
2023/07/24 12:31:22;;;;;;;13.13;10.07;;;34.80;58.50;;;;;;5082108;28;20263;-65
2023/07/24 12:33:49;;;;;;;12.23;10.30;;;34.80;57.60;;;;;;5085923;28;20218;-65
2023/07/24 12:36:16;;;;;;;16.67;11.07;;;34.80;56.40;;;;;;5078940;28;20209;-64
2023/07/24 12:38:43;;;;;;;16.05;11.88;;;34.70;54.30;;;;;;5074693;28;20240;-65
2023/07/24 12:41:10;;;;;;;13.97;10.33;;;34.40;54.50;;;;;;5080332;28;20202;-64
2023/07/24 12:43:37;;;;;;;12.67;10.47;;;34.20;55.60;;;;;;5075608;28;20325;-64
2023/07/24 12:46:04;;;;;;;14.17;10.83;;;34.10;55.40;;;;;;5068518;28;20647;-64